createdAt,value
2018-11-29T00:00:32.667Z,99.90
2018-11-29T00:03:01.264Z,99.90
2018-11-29T00:05:29.739Z,99.90
2018-11-29T00:07:58.193Z,99.90
2018-11-29T00:10:27.021Z,99.90
2018-11-29T00:12:55.539Z,99.90
2018-11-29T00:15:24.075Z,99.90
2018-11-29T00:17:53.323Z,99.90
2018-11-29T00:20:22.593Z,99.90
2018-11-29T00:22:52.021Z,99.90
2018-11-29T00:25:21.832Z,99.90
2018-11-29T00:27:51.427Z,99.90
2018-11-29T00:30:23.274Z,99.90
2018-11-29T00:32:55.976Z,99.90
2018-11-29T00:35:24.472Z,99.90
2018-11-29T00:37:53.500Z,99.90
2018-11-29T00:40:22.916Z,99.90
2018-11-29T00:42:51.774Z,99.90
2018-11-29T00:45:22.696Z,99.90
2018-11-29T00:47:51.632Z,99.90
2018-11-29T00:50:21.388Z,99.90
2018-11-29T00:52:51.926Z,99.90
2018-11-29T00:55:23.272Z,99.90
2018-11-29T00:57:52.400Z,99.90
2018-11-29T01:00:25.464Z,99.90
2018-11-29T01:02:54.155Z,99.90
2018-11-29T01:05:22.655Z,99.90
2018-11-29T01:07:51.307Z,99.90
2018-11-29T01:10:20.063Z,99.90
2018-11-29T01:12:49.244Z,99.90
2018-11-29T01:15:19.891Z,99.90
2018-11-29T01:17:49.316Z,99.90
2018-11-29T01:20:19.743Z,99.90
2018-11-29T01:22:48.871Z,99.90
2018-11-29T01:25:17.911Z,99.90
2018-11-29T01:27:47.347Z,99.90
2018-11-29T01:30:18.570Z,99.90
2018-11-29T01:32:47.639Z,99.90
2018-11-29T01:35:19.071Z,99.90
2018-11-29T01:37:47.639Z,99.90
2018-11-29T01:40:21.317Z,99.90
2018-11-29T01:42:54.720Z,99.90
2018-11-29T01:45:23.188Z,99.90
2018-11-29T01:47:51.648Z,99.90
2018-11-29T01:50:20.174Z,99.90
2018-11-29T01:52:48.618Z,99.90
2018-11-29T01:55:17.440Z,99.90
2018-11-29T01:57:45.925Z,99.90
2018-11-29T02:04:30.468Z,99.90
2018-11-29T02:06:58.937Z,99.90
2018-11-29T02:09:27.403Z,99.90
2018-11-29T02:11:56.634Z,99.90
2018-11-29T02:14:25.117Z,99.90
2018-11-29T02:16:53.583Z,99.90
2018-11-29T02:19:22.572Z,99.90
2018-11-29T02:21:51.185Z,99.90
2018-11-29T02:24:20.591Z,99.90
2018-11-29T02:26:49.108Z,99.90
2018-11-29T02:29:17.568Z,99.90
2018-11-29T02:31:46.058Z,99.90
2018-11-29T02:39:11.944Z,99.90
2018-11-29T02:41:40.443Z,99.90
2018-11-29T02:44:08.940Z,99.90
2018-11-29T02:46:37.587Z,99.90
2018-11-29T02:49:06.075Z,99.90
2018-11-29T02:51:34.561Z,99.90
2018-11-29T02:54:03.076Z,99.90
2018-11-29T02:56:31.545Z,99.90
2018-11-29T02:59:00.040Z,99.90
2018-11-29T03:01:28.874Z,99.90
2018-11-29T03:03:57.339Z,99.90
2018-11-29T03:06:25.838Z,99.90
2018-11-29T03:08:55.151Z,99.90
2018-11-29T03:11:23.614Z,99.90
2018-11-29T03:13:52.132Z,99.90
2018-11-29T03:16:20.618Z,99.90
2018-11-29T03:18:49.111Z,99.90
2018-11-29T03:21:17.555Z,99.90
2018-11-29T03:23:46.661Z,99.90
2018-11-29T03:31:09.428Z,99.90
2018-11-29T03:33:37.988Z,99.90
2018-11-29T03:36:06.478Z,99.90
2018-11-29T03:38:34.980Z,99.90
2018-11-29T03:41:03.536Z,99.90
2018-11-29T03:43:32.588Z,99.90
2018-11-29T03:46:02.846Z,99.90
2018-11-29T03:48:31.291Z,99.90
2018-11-29T03:50:59.783Z,99.90
2018-11-29T03:53:28.273Z,99.90
2018-11-29T03:55:56.745Z,99.90
2018-11-29T03:58:25.220Z,99.90
2018-11-29T04:00:54.761Z,99.90
2018-11-29T04:03:23.232Z,99.90
2018-11-29T04:05:52.633Z,99.90
2018-11-29T04:08:21.687Z,99.90
2018-11-29T04:10:50.159Z,99.90
2018-11-29T04:13:19.523Z,99.90
2018-11-29T04:15:48.051Z,99.90
2018-11-29T04:18:17.429Z,99.90
2018-11-29T04:20:46.833Z,99.90
2018-11-29T04:28:16.308Z,99.90
2018-11-29T04:30:44.791Z,99.90
2018-11-29T04:33:13.287Z,99.90
2018-11-29T04:35:41.812Z,99.90
2018-11-29T04:38:10.288Z,99.90
2018-11-29T04:40:39.662Z,99.90
2018-11-29T04:43:08.177Z,99.90
2018-11-29T04:45:47.745Z,99.90
2018-11-29T04:48:18.350Z,99.90
2018-11-29T04:50:46.905Z,99.90
2018-11-29T04:58:13.128Z,99.90
2018-11-29T05:00:41.606Z,99.90
2018-11-29T05:03:10.189Z,99.90
2018-11-29T05:05:39.017Z,99.90
2018-11-29T05:08:09.135Z,99.90
2018-11-29T05:10:38.286Z,99.90
2018-11-29T05:13:06.813Z,99.90
2018-11-29T05:15:36.075Z,99.90
2018-11-29T05:18:04.921Z,99.90
2018-11-29T05:20:33.460Z,99.90
2018-11-29T05:23:01.949Z,99.90
2018-11-29T05:25:30.463Z,99.90
2018-11-29T05:27:59.479Z,99.90
2018-11-29T05:30:28.631Z,99.90
2018-11-29T05:32:57.938Z,99.90
2018-11-29T05:35:26.473Z,99.90
2018-11-29T05:37:54.944Z,99.90
2018-11-29T05:40:23.457Z,99.90
2018-11-29T05:42:52.264Z,99.90
2018-11-29T05:45:20.736Z,99.90
2018-11-29T05:47:49.243Z,99.90
2018-11-29T05:50:18.152Z,99.90
2018-11-29T05:52:46.751Z,99.90
2018-11-29T06:00:13.662Z,99.90
2018-11-29T06:02:42.439Z,99.90
2018-11-29T06:05:12.183Z,99.90
2018-11-29T06:07:40.757Z,99.90
2018-11-29T06:10:10.641Z,99.90
2018-11-29T06:12:40.112Z,99.90
2018-11-29T06:15:10.531Z,99.90
2018-11-29T06:17:39.079Z,99.90
2018-11-29T06:20:13.996Z,99.90
2018-11-29T06:22:42.459Z,99.90
2018-11-29T06:25:11.320Z,99.90
2018-11-29T06:27:40.199Z,99.90
2018-11-29T06:30:16.725Z,99.90
2018-11-29T06:32:45.935Z,99.90
2018-11-29T06:40:16.319Z,99.90
2018-11-29T06:42:44.959Z,99.90
2018-11-29T06:45:17.311Z,99.90
2018-11-29T06:47:46.297Z,99.90
2018-11-29T06:55:20.073Z,99.90
2018-11-29T06:57:48.624Z,99.90
2018-11-29T07:00:26.172Z,99.90
2018-11-29T07:02:54.651Z,99.90
2018-11-29T07:05:23.821Z,99.90
2018-11-29T07:07:52.391Z,99.90
2018-11-29T07:10:26.123Z,99.90
2018-11-29T07:12:54.639Z,99.90
2018-11-29T07:15:23.189Z,99.90
2018-11-29T07:17:52.320Z,99.90
2018-11-29T07:20:21.163Z,99.90
2018-11-29T07:22:49.655Z,99.90
2018-11-29T07:25:18.308Z,99.90
2018-11-29T07:27:46.870Z,99.90
2018-11-29T07:35:13.404Z,99.90
2018-11-29T07:37:42.264Z,99.90
2018-11-29T07:40:12.119Z,99.90
2018-11-29T07:42:41.925Z,99.90
2018-11-29T07:45:15.243Z,99.90
2018-11-29T07:47:44.559Z,99.90
2018-11-29T07:50:17.554Z,99.90
2018-11-29T07:52:46.134Z,99.90
2018-11-29T07:55:19.053Z,99.90
2018-11-29T07:57:48.764Z,99.90
2018-11-29T08:00:17.574Z,99.90
2018-11-29T08:02:46.113Z,99.90
2018-11-29T08:05:18.202Z,99.90
2018-11-29T08:07:47.921Z,99.90
2018-11-29T08:10:19.788Z,99.90
2018-11-29T08:12:48.744Z,99.90
2018-11-29T08:15:18.967Z,99.90
2018-11-29T08:17:48.039Z,99.90
2018-11-29T08:20:20.055Z,99.90
2018-11-29T08:22:48.508Z,99.90
2018-11-29T08:25:17.792Z,99.90
2018-11-29T08:27:46.675Z,99.90
2018-11-29T08:35:17.240Z,99.90
2018-11-29T08:37:46.769Z,99.90
2018-11-29T08:40:18.663Z,99.90
2018-11-29T08:42:47.179Z,99.90
2018-11-29T08:45:18.071Z,99.90
2018-11-29T08:47:46.703Z,99.90
2018-11-29T08:50:16.443Z,99.90
2018-11-29T08:52:45.753Z,99.90
2018-11-29T09:00:20.704Z,99.90
2018-11-29T09:02:49.724Z,99.90
2018-11-29T09:05:18.441Z,99.90
2018-11-29T09:07:47.900Z,99.90
2018-11-29T09:10:19.928Z,99.90
2018-11-29T09:12:49.198Z,99.90
2018-11-29T09:15:18.175Z,99.90
2018-11-29T09:17:46.931Z,99.90
2018-11-29T09:25:18.286Z,99.70
2018-11-29T09:27:47.076Z,96.70
2018-11-29T09:30:22.492Z,93.90
2018-11-29T09:32:52.888Z,92.20
2018-11-29T09:35:21.914Z,91.10
2018-11-29T09:37:50.416Z,90.80
2018-11-29T09:40:19.165Z,91.70
2018-11-29T09:42:47.756Z,90.90
2018-11-29T09:45:19.019Z,91.00
2018-11-29T09:47:48.719Z,91.10
2018-11-29T09:50:18.624Z,90.60
2018-11-29T09:52:47.175Z,90.10
2018-11-29T09:55:18.010Z,88.60
2018-11-29T09:57:47.400Z,90.20
2018-11-29T10:00:27.738Z,90.60
2018-11-29T10:03:10.188Z,91.00
2018-11-29T10:05:38.966Z,91.10
2018-11-29T10:08:11.903Z,92.60
2018-11-29T10:10:37.274Z,94.00
2018-11-29T10:13:06.659Z,95.40
2018-11-29T10:15:35.169Z,97.50
2018-11-29T10:18:04.565Z,99.20
2018-11-29T10:20:34.311Z,99.90
2018-11-29T10:23:02.806Z,99.90
2018-11-29T10:25:32.193Z,99.90
2018-11-29T10:28:04.007Z,99.90
2018-11-29T10:30:35.719Z,99.90
2018-11-29T10:33:04.185Z,99.90
2018-11-29T10:35:33.180Z,99.90
2018-11-29T10:38:02.000Z,99.90
2018-11-29T10:40:30.554Z,99.90
2018-11-29T10:42:59.528Z,99.90
2018-11-29T10:45:28.777Z,99.90
2018-11-29T10:47:58.216Z,99.90
2018-11-29T10:50:26.739Z,99.90
2018-11-29T10:52:55.228Z,99.90
2018-11-29T10:55:23.744Z,99.90
2018-11-29T10:57:52.484Z,99.90
2018-11-29T11:00:28.916Z,99.90
2018-11-29T11:03:06.772Z,99.90
2018-11-29T11:05:35.964Z,99.90
2018-11-29T11:08:08.261Z,99.90
2018-11-29T11:10:33.836Z,99.90
2018-11-29T11:13:02.347Z,99.90
2018-11-29T11:15:30.860Z,99.90
2018-11-29T11:17:59.359Z,99.90
2018-11-29T11:20:27.907Z,99.90
2018-11-29T11:22:56.396Z,99.90
2018-11-29T11:25:25.675Z,99.90
2018-11-29T11:27:54.180Z,99.90
2018-11-29T11:30:23.498Z,99.90
2018-11-29T11:32:53.362Z,99.90
2018-11-29T11:35:21.846Z,99.90
2018-11-29T11:37:50.919Z,99.90
2018-11-29T11:40:19.407Z,99.90
2018-11-29T11:42:48.103Z,99.90
2018-11-29T11:45:18.481Z,99.90
2018-11-29T11:47:47.484Z,99.90
2018-11-29T11:50:21.473Z,99.90
2018-11-29T11:52:50.516Z,99.90
2018-11-29T11:55:19.465Z,99.90
2018-11-29T11:57:48.503Z,99.90
2018-11-29T12:00:22.192Z,99.90
2018-11-29T12:02:53.468Z,99.90
2018-11-29T12:05:21.965Z,99.90
2018-11-29T12:07:50.921Z,99.90
2018-11-29T12:10:19.405Z,99.90
2018-11-29T12:12:47.980Z,99.90
2018-11-29T12:15:17.553Z,99.90
2018-11-29T12:17:47.144Z,99.90
2018-11-29T12:20:20.444Z,99.90
2018-11-29T12:22:49.170Z,99.90
2018-11-29T12:25:20.683Z,99.90
2018-11-29T12:27:50.220Z,99.90
2018-11-29T12:30:34.879Z,99.90
2018-11-29T12:33:05.760Z,99.90
2018-11-29T12:35:34.450Z,99.90
2018-11-29T12:38:03.357Z,99.90
2018-11-29T12:40:32.577Z,99.90
2018-11-29T12:43:01.467Z,99.90
2018-11-29T12:45:29.972Z,99.90
2018-11-29T12:48:06.580Z,99.90
2018-11-29T12:50:38.391Z,99.90
2018-11-29T12:53:07.572Z,99.90
2018-11-29T12:55:40.646Z,99.90
2018-11-29T12:58:09.184Z,99.90
2018-11-29T13:00:38.083Z,99.90
2018-11-29T13:05:37.428Z,99.90
2018-11-29T13:08:06.896Z,99.90
2018-11-29T13:10:35.451Z,99.90
2018-11-29T13:13:04.337Z,99.90
2018-11-29T13:15:34.618Z,99.90
2018-11-29T13:18:05.987Z,99.90
2018-11-29T13:20:34.505Z,99.90
2018-11-29T13:23:03.016Z,99.90
2018-11-29T13:25:31.945Z,99.90
2018-11-29T13:28:00.431Z,99.90
2018-11-29T13:30:28.951Z,99.90
2018-11-29T13:32:57.849Z,99.90
2018-11-29T13:35:28.942Z,99.90
2018-11-29T13:38:00.103Z,99.90
2018-11-29T13:40:29.176Z,99.90
2018-11-29T13:42:57.732Z,99.90
2018-11-29T13:45:26.956Z,99.90
2018-11-29T13:47:56.676Z,99.90
2018-11-29T13:50:25.172Z,99.90
2018-11-29T13:52:54.319Z,99.90
2018-11-29T13:55:22.841Z,99.90
2018-11-29T13:57:51.708Z,99.90
2018-11-29T14:00:22.196Z,99.90
2018-11-29T14:02:53.944Z,99.90
2018-11-29T14:05:22.448Z,99.90
2018-11-29T14:07:51.613Z,99.90
2018-11-29T14:10:22.143Z,99.90
2018-11-29T14:12:53.034Z,99.90
2018-11-29T14:15:22.912Z,99.90
2018-11-29T14:17:51.440Z,99.90
2018-11-29T14:20:19.976Z,99.90
2018-11-29T14:22:48.491Z,99.90
2018-11-29T14:25:18.672Z,99.90
2018-11-29T14:27:50.428Z,99.90
2018-11-29T14:30:24.825Z,99.90
2018-11-29T14:32:54.933Z,99.90
2018-11-29T14:35:24.104Z,99.90
2018-11-29T14:37:52.600Z,99.90
2018-11-29T14:40:24.315Z,99.90
2018-11-29T14:42:53.345Z,99.90
2018-11-29T14:45:26.033Z,99.90
2018-11-29T14:47:54.991Z,99.90
2018-11-29T14:50:33.734Z,99.90
2018-11-29T14:53:02.243Z,99.90
2018-11-29T14:55:30.768Z,99.90
2018-11-29T14:57:59.644Z,99.90
2018-11-29T15:00:28.138Z,99.90
2018-11-29T15:02:57.971Z,99.90
2018-11-29T15:05:29.328Z,99.90
2018-11-29T15:07:57.813Z,99.90
2018-11-29T15:10:26.313Z,99.90
2018-11-29T15:12:54.935Z,99.90
2018-11-29T15:15:24.172Z,99.90
2018-11-29T15:17:55.956Z,99.90
2018-11-29T15:20:27.229Z,99.90
2018-11-29T15:22:54.715Z,99.90
2018-11-29T15:25:24.012Z,99.90
2018-11-29T15:27:52.780Z,99.90
2018-11-29T15:30:23.299Z,99.90
2018-11-29T15:32:52.611Z,99.90
2018-11-29T15:35:23.036Z,99.90
2018-11-29T15:37:51.579Z,99.90
2018-11-29T15:40:21.120Z,99.90
2018-11-29T15:42:50.792Z,99.90
2018-11-29T15:45:22.808Z,99.90
2018-11-29T15:47:52.973Z,99.90
2018-11-29T15:50:22.477Z,99.90
2018-11-29T15:52:51.024Z,99.90
2018-11-29T15:55:21.352Z,99.90
2018-11-29T15:57:50.804Z,99.90
2018-11-29T16:00:25.224Z,99.90
2018-11-29T16:02:54.452Z,99.90
2018-11-29T16:05:23.022Z,99.90
2018-11-29T16:07:52.037Z,99.90
2018-11-29T16:10:21.928Z,99.90
2018-11-29T16:12:50.706Z,99.90
2018-11-29T16:15:19.920Z,99.90
2018-11-29T16:17:49.359Z,99.90
2018-11-29T16:20:21.264Z,99.90
2018-11-29T16:22:50.652Z,99.90
2018-11-29T16:25:19.215Z,99.90
2018-11-29T16:27:47.922Z,99.90
2018-11-29T16:30:50.627Z,99.90
2018-11-29T16:33:22.024Z,99.90
2018-11-29T16:35:51.027Z,99.90
2018-11-29T16:38:19.540Z,99.90
2018-11-29T16:40:48.267Z,99.90
2018-11-29T16:43:17.593Z,99.90
2018-11-29T16:45:46.576Z,99.90
2018-11-29T16:53:10.527Z,99.90
2018-11-29T16:55:39.024Z,99.90
2018-11-29T16:58:09.097Z,99.90
2018-11-29T17:00:37.703Z,99.90
2018-11-29T17:03:06.665Z,99.90
2018-11-29T17:05:36.584Z,99.90
2018-11-29T17:08:05.386Z,99.90
2018-11-29T17:10:33.901Z,99.90
2018-11-29T17:13:05.802Z,99.90
2018-11-29T17:15:34.720Z,99.90
2018-11-29T17:18:05.021Z,99.90
2018-11-29T17:20:33.524Z,99.90
2018-11-29T17:23:03.017Z,99.90
2018-11-29T17:25:31.496Z,99.90
2018-11-29T17:27:59.983Z,99.90
2018-11-29T17:30:30.776Z,99.90
2018-11-29T17:32:59.683Z,99.90
2018-11-29T17:35:28.176Z,99.90
2018-11-29T17:37:58.489Z,99.90
2018-11-29T17:40:27.095Z,99.90
2018-11-29T17:42:56.321Z,99.90
2018-11-29T17:45:26.988Z,99.90
2018-11-29T17:47:57.338Z,99.90
2018-11-29T17:50:28.160Z,99.90
2018-11-29T17:52:56.684Z,99.90
2018-11-29T17:55:25.213Z,99.90
2018-11-29T17:57:55.159Z,99.90
2018-11-29T18:00:25.009Z,99.90
2018-11-29T18:02:54.151Z,99.90
2018-11-29T18:05:22.728Z,99.90
2018-11-29T18:07:51.208Z,99.90
2018-11-29T18:10:21.916Z,99.90
2018-11-29T18:12:54.822Z,99.90
2018-11-29T18:15:25.938Z,99.90
2018-11-29T18:17:54.424Z,99.90
2018-11-29T18:20:23.284Z,99.90
2018-11-29T18:22:52.689Z,99.90
2018-11-29T18:25:21.830Z,99.90
2018-11-29T18:27:51.593Z,99.90
2018-11-29T18:30:21.279Z,99.90
2018-11-29T18:32:50.016Z,99.90
2018-11-29T18:35:19.513Z,99.90
2018-11-29T18:37:48.671Z,99.90
2018-11-29T18:40:21.013Z,99.90
2018-11-29T18:42:58.136Z,99.90
2018-11-29T18:45:27.390Z,99.90
2018-11-29T18:47:56.864Z,99.90
2018-11-29T18:50:26.456Z,99.90
2018-11-29T18:52:55.931Z,99.90
2018-11-29T18:55:25.735Z,99.90
2018-11-29T18:57:55.496Z,99.90
2018-11-29T19:00:26.821Z,99.90
2018-11-29T19:02:57.180Z,99.90
2018-11-29T19:05:24.084Z,99.90
2018-11-29T19:07:53.352Z,99.90
2018-11-29T19:10:22.277Z,99.90
2018-11-29T19:12:57.106Z,99.90
2018-11-29T19:15:26.560Z,99.90
2018-11-29T19:17:55.209Z,99.90
2018-11-29T19:20:24.534Z,99.90
2018-11-29T19:22:53.229Z,99.90
2018-11-29T19:25:21.708Z,99.90
2018-11-29T19:27:51.202Z,99.90
2018-11-29T19:30:22.994Z,99.90
2018-11-29T19:32:53.660Z,99.90
2018-11-29T19:35:22.232Z,99.90
2018-11-29T19:37:50.849Z,99.90
2018-11-29T19:40:19.540Z,99.90
2018-11-29T19:42:48.056Z,99.90
2018-11-29T19:45:17.697Z,99.90
2018-11-29T19:47:46.567Z,99.90
2018-11-29T19:55:17.596Z,99.90
2018-11-29T19:57:46.152Z,99.90
2018-11-29T20:05:10.601Z,99.90
2018-11-29T20:07:39.271Z,99.90
2018-11-29T20:10:11.331Z,99.90
2018-11-29T20:12:41.653Z,99.90
2018-11-29T20:15:24.770Z,99.90
2018-11-29T20:17:54.450Z,99.90
2018-11-29T20:20:23.265Z,99.90
2018-11-29T20:22:52.398Z,99.90
2018-11-29T20:25:22.857Z,99.90
2018-11-29T20:27:51.379Z,99.90
2018-11-29T20:30:21.048Z,99.90
2018-11-29T20:32:52.088Z,99.90
2018-11-29T20:35:20.589Z,99.90
2018-11-29T20:37:50.340Z,99.90
2018-11-29T20:40:22.991Z,99.90
2018-11-29T20:42:52.684Z,99.90
2018-11-29T20:45:30.067Z,99.90
2018-11-29T20:47:58.718Z,99.90
2018-11-29T20:50:29.321Z,99.90
2018-11-29T20:53:00.413Z,99.90
2018-11-29T20:55:31.043Z,99.90
2018-11-29T20:57:59.835Z,99.90
2018-11-29T21:00:28.642Z,99.90
2018-11-29T21:02:57.296Z,99.90
2018-11-29T21:05:26.073Z,99.90
2018-11-29T21:07:58.740Z,99.90
2018-11-29T21:10:27.429Z,99.90
2018-11-29T21:12:56.866Z,99.90
2018-11-29T21:15:25.385Z,99.90
2018-11-29T21:17:53.889Z,99.90
2018-11-29T21:20:22.333Z,99.90
2018-11-29T21:22:52.399Z,99.90
2018-11-29T21:25:22.250Z,99.90
2018-11-29T21:27:52.777Z,99.90
2018-11-29T21:30:22.392Z,99.90
2018-11-29T21:32:51.728Z,99.90
2018-11-29T21:35:21.729Z,99.90
2018-11-29T21:37:51.398Z,99.90
2018-11-29T21:40:28.651Z,99.90
2018-11-29T21:42:57.374Z,99.90
2018-11-29T21:45:25.840Z,99.90
2018-11-29T21:47:54.503Z,99.90
2018-11-29T21:50:23.051Z,99.90
2018-11-29T21:52:52.978Z,99.90
2018-11-29T21:55:21.479Z,99.90
2018-11-29T21:57:50.031Z,99.90
2018-11-29T22:00:21.029Z,99.90
2018-11-29T22:02:53.944Z,99.90
2018-11-29T22:05:22.518Z,99.90
2018-11-29T22:07:51.129Z,99.90
2018-11-29T22:10:20.079Z,99.90
2018-11-29T22:12:48.881Z,99.90
2018-11-29T22:15:17.516Z,99.90
2018-11-29T22:18:27.273Z,99.90
2018-11-29T22:20:57.265Z,99.90
2018-11-29T22:23:26.080Z,99.90
2018-11-29T22:25:55.761Z,99.90
2018-11-29T22:28:24.495Z,99.90
2018-11-29T22:30:53.743Z,99.90
2018-11-29T22:33:23.197Z,99.90
2018-11-29T22:35:52.363Z,99.90
2018-11-29T22:38:21.022Z,99.90
2018-11-29T22:40:50.165Z,99.90
2018-11-29T22:43:18.660Z,99.90
2018-11-29T22:45:47.164Z,99.90
2018-11-29T22:48:17.460Z,99.90
2018-11-29T22:50:46.178Z,99.90
2018-11-29T22:58:14.728Z,99.90
2018-11-29T23:00:48.728Z,99.90
2018-11-29T23:03:17.507Z,99.90
2018-11-29T23:05:46.770Z,99.90
2018-11-29T23:13:09.183Z,99.90
2018-11-29T23:15:38.139Z,99.90
2018-11-29T23:18:07.407Z,99.90
2018-11-29T23:20:36.463Z,99.90
2018-11-29T23:23:06.760Z,99.90
2018-11-29T23:25:35.556Z,99.90
2018-11-29T23:28:05.584Z,99.90
2018-11-29T23:30:34.107Z,99.90
2018-11-29T23:33:02.597Z,99.90
2018-11-29T23:35:31.151Z,99.90
2018-11-29T23:37:59.661Z,99.90
2018-11-29T23:40:28.180Z,99.90
2018-11-29T23:42:57.087Z,99.90
2018-11-29T23:45:25.613Z,99.90
2018-11-29T23:47:54.087Z,99.90
2018-11-29T23:50:22.640Z,99.90
2018-11-29T23:52:51.123Z,99.90
2018-11-29T23:55:21.182Z,99.90
2018-11-29T23:57:49.799Z,99.90
